Terminal Aerodrome Forecast
Issued by NWS Cleveland, OH

Home | Current Version | Previous Version | Graphics & Text | Print | Product List | Glossary On
Versions: 1 2 3 4 5 6 7 8 9 10 11 12 13 14 15 16 17 18 19 20 21 22 23
755
FTUS41 KCLE 161740 AAB
TAFERI
TAF AMD
KERI 161740Z 1618/1718 25018G28KT P6SM VCSH OVC010
     FM170000 24015G25KT P6SM -SHRASN OVC020
     FM170300 25015G25KT 6SM -SHSNRA OVC007
     FM170500 26017G27KT 6SM -SHSN OVC007
     FM171200 26017G27KT P6SM -SHSN OVC010=

USA.gov is the U.S. government's official web portal to all federal, state and local government web resources and services.